sensor_id;sensor_type;location;lat;lon;timestamp;P1;durP1;ratioP1;P2;durP2;ratioP2
28311;SDS011;15572;48.810;9.148;2023-04-25T00:03:25;2.03;;;1.60;;
28311;SDS011;15572;48.810;9.148;2023-04-25T00:08:22;1.63;;;1.53;;
28311;SDS011;15572;48.810;9.148;2023-04-25T00:13:19;5.30;;;1.57;;
28311;SDS011;15572;48.810;9.148;2023-04-25T00:18:16;2.60;;;1.60;;
28311;SDS011;15572;48.810;9.148;2023-04-25T00:23:14;3.07;;;1.37;;
28311;SDS011;15572;48.810;9.148;2023-04-25T00:28:14;2.50;;;1.50;;
28311;SDS011;15572;48.810;9.148;2023-04-25T00:33:10;2.10;;;1.70;;
28311;SDS011;15572;48.810;9.148;2023-04-25T00:38:07;2.23;;;1.67;;
28311;SDS011;15572;48.810;9.148;2023-04-25T00:43:03;2.17;;;1.77;;
28311;SDS011;15572;48.810;9.148;2023-04-25T00:48:01;2.13;;;1.80;;
28311;SDS011;15572;48.810;9.148;2023-04-25T00:52:59;2.57;;;1.80;;
28311;SDS011;15572;48.810;9.148;2023-04-25T00:57:56;2.07;;;1.73;;
28311;SDS011;15572;48.810;9.148;2023-04-25T01:02:53;2.47;;;1.90;;
28311;SDS011;15572;48.810;9.148;2023-04-25T01:07:51;2.13;;;1.80;;
28311;SDS011;15572;48.810;9.148;2023-04-25T01:12:47;1.80;;;1.70;;
28311;SDS011;15572;48.810;9.148;2023-04-25T01:17:44;2.27;;;1.70;;
28311;SDS011;15572;48.810;9.148;2023-04-25T01:22:43;2.70;;;2.17;;
28311;SDS011;15572;48.810;9.148;2023-04-25T01:27:39;3.23;;;2.10;;
28311;SDS011;15572;48.810;9.148;2023-04-25T01:32:36;2.20;;;2.00;;
28311;SDS011;15572;48.810;9.148;2023-04-25T01:37:34;3.07;;;2.23;;
28311;SDS011;15572;48.810;9.148;2023-04-25T01:42:32;3.40;;;2.33;;
28311;SDS011;15572;48.810;9.148;2023-04-25T01:47:30;2.93;;;2.13;;
28311;SDS011;15572;48.810;9.148;2023-04-25T01:52:26;4.37;;;2.50;;
28311;SDS011;15572;48.810;9.148;2023-04-25T01:57:23;2.70;;;2.30;;
28311;SDS011;15572;48.810;9.148;2023-04-25T02:02:21;2.93;;;2.23;;
28311;SDS011;15572;48.810;9.148;2023-04-25T02:07:17;4.77;;;2.87;;
28311;SDS011;15572;48.810;9.148;2023-04-25T02:12:14;2.47;;;1.80;;
28311;SDS011;15572;48.810;9.148;2023-04-25T02:17:10;5.13;;;2.40;;
28311;SDS011;15572;48.810;9.148;2023-04-25T02:22:08;2.67;;;1.90;;
28311;SDS011;15572;48.810;9.148;2023-04-25T02:27:05;2.67;;;2.03;;
28311;SDS011;15572;48.810;9.148;2023-04-25T02:32:02;3.73;;;2.30;;
28311;SDS011;15572;48.810;9.148;2023-04-25T02:36:59;2.67;;;2.30;;
28311;SDS011;15572;48.810;9.148;2023-04-25T02:41:57;4.93;;;2.50;;
28311;SDS011;15572;48.810;9.148;2023-04-25T02:46:53;3.97;;;2.40;;
28311;SDS011;15572;48.810;9.148;2023-04-25T02:51:50;3.57;;;2.40;;
28311;SDS011;15572;48.810;9.148;2023-04-25T02:56:46;3.93;;;2.57;;
28311;SDS011;15572;48.810;9.148;2023-04-25T03:01:44;4.20;;;2.43;;
28311;SDS011;15572;48.810;9.148;2023-04-25T03:06:41;4.40;;;2.23;;
28311;SDS011;15572;48.810;9.148;2023-04-25T03:11:38;3.53;;;2.20;;
28311;SDS011;15572;48.810;9.148;2023-04-25T03:16:35;3.83;;;2.43;;
28311;SDS011;15572;48.810;9.148;2023-04-25T03:21:33;4.00;;;2.57;;
28311;SDS011;15572;48.810;9.148;2023-04-25T03:26:31;3.87;;;2.47;;
28311;SDS011;15572;48.810;9.148;2023-04-25T03:31:27;3.80;;;2.33;;
28311;SDS011;15572;48.810;9.148;2023-04-25T03:36:24;2.77;;;2.37;;
28311;SDS011;15572;48.810;9.148;2023-04-25T03:41:22;3.10;;;2.60;;
28311;SDS011;15572;48.810;9.148;2023-04-25T03:46:18;3.70;;;2.70;;
28311;SDS011;15572;48.810;9.148;2023-04-25T03:51:15;3.33;;;2.80;;
28311;SDS011;15572;48.810;9.148;2023-04-25T03:56:11;4.40;;;2.67;;
28311;SDS011;15572;48.810;9.148;2023-04-25T04:01:09;5.37;;;2.90;;
28311;SDS011;15572;48.810;9.148;2023-04-25T04:06:06;4.77;;;2.77;;
28311;SDS011;15572;48.810;9.148;2023-04-25T04:11:04;3.93;;;2.60;;
28311;SDS011;15572;48.810;9.148;2023-04-25T04:16:00;4.03;;;2.77;;
28311;SDS011;15572;48.810;9.148;2023-04-25T04:20:58;4.27;;;2.63;;
28311;SDS011;15572;48.810;9.148;2023-04-25T04:25:54;6.10;;;3.00;;
28311;SDS011;15572;48.810;9.148;2023-04-25T04:30:51;5.63;;;2.90;;
28311;SDS011;15572;48.810;9.148;2023-04-25T04:35:48;3.50;;;3.10;;
28311;SDS011;15572;48.810;9.148;2023-04-25T04:40:48;6.90;;;3.20;;
28311;SDS011;15572;48.810;9.148;2023-04-25T04:45:45;3.83;;;3.10;;
28311;SDS011;15572;48.810;9.148;2023-04-25T04:50:42;6.97;;;3.20;;
28311;SDS011;15572;48.810;9.148;2023-04-25T04:55:41;3.97;;;3.37;;
28311;SDS011;15572;48.810;9.148;2023-04-25T05:00:39;4.57;;;3.40;;
28311;SDS011;15572;48.810;9.148;2023-04-25T05:05:35;6.37;;;4.03;;
28311;SDS011;15572;48.810;9.148;2023-04-25T05:10:34;6.50;;;3.93;;
28311;SDS011;15572;48.810;9.148;2023-04-25T05:15:31;6.03;;;3.90;;
28311;SDS011;15572;48.810;9.148;2023-04-25T05:20:29;4.53;;;3.50;;
28311;SDS011;15572;48.810;9.148;2023-04-25T05:25:25;5.23;;;3.87;;
28311;SDS011;15572;48.810;9.148;2023-04-25T05:30:22;5.43;;;3.77;;
28311;SDS011;15572;48.810;9.148;2023-04-25T05:35:19;5.77;;;4.00;;
28311;SDS011;15572;48.810;9.148;2023-04-25T05:40:16;4.37;;;3.27;;
28311;SDS011;15572;48.810;9.148;2023-04-25T05:45:13;5.43;;;3.90;;
28311;SDS011;15572;48.810;9.148;2023-04-25T05:50:09;5.63;;;3.93;;
28311;SDS011;15572;48.810;9.148;2023-04-25T05:55:06;4.70;;;3.80;;
28311;SDS011;15572;48.810;9.148;2023-04-25T06:00:05;5.70;;;3.47;;
28311;SDS011;15572;48.810;9.148;2023-04-25T06:05:04;4.10;;;3.70;;
28311;SDS011;15572;48.810;9.148;2023-04-25T06:10:01;4.10;;;3.70;;
28311;SDS011;15572;48.810;9.148;2023-04-25T06:14:58;5.57;;;3.73;;
28311;SDS011;15572;48.810;9.148;2023-04-25T06:19:56;3.40;;;3.10;;
28311;SDS011;15572;48.810;9.148;2023-04-25T06:24:53;7.00;;;3.73;;
28311;SDS011;15572;48.810;9.148;2023-04-25T06:29:52;4.83;;;3.70;;
28311;SDS011;15572;48.810;9.148;2023-04-25T06:34:48;4.57;;;3.30;;
28311;SDS011;15572;48.810;9.148;2023-04-25T06:39:46;4.93;;;3.73;;
28311;SDS011;15572;48.810;9.148;2023-04-25T06:44:43;4.73;;;3.50;;
28311;SDS011;15572;48.810;9.148;2023-04-25T06:49:39;5.57;;;4.53;;
28311;SDS011;15572;48.810;9.148;2023-04-25T06:54:36;5.13;;;4.23;;
28311;SDS011;15572;48.810;9.148;2023-04-25T06:59:34;5.67;;;4.03;;
28311;SDS011;15572;48.810;9.148;2023-04-25T07:04:30;5.00;;;4.30;;
28311;SDS011;15572;48.810;9.148;2023-04-25T07:09:26;9.93;;;6.23;;
28311;SDS011;15572;48.810;9.148;2023-04-25T07:14:23;5.30;;;4.70;;
28311;SDS011;15572;48.810;9.148;2023-04-25T07:19:21;5.37;;;4.50;;
28311;SDS011;15572;48.810;9.148;2023-04-25T07:24:21;5.85;;;4.70;;
28311;SDS011;15572;48.810;9.148;2023-04-25T07:29:17;6.10;;;4.13;;
28311;SDS011;15572;48.810;9.148;2023-04-25T07:34:14;4.90;;;3.80;;
28311;SDS011;15572;48.810;9.148;2023-04-25T07:39:12;5.47;;;4.20;;
28311;SDS011;15572;48.810;9.148;2023-04-25T07:44:08;5.80;;;4.30;;
28311;SDS011;15572;48.810;9.148;2023-04-25T07:49:05;7.03;;;4.80;;
28311;SDS011;15572;48.810;9.148;2023-04-25T07:54:01;5.50;;;4.40;;
28311;SDS011;15572;48.810;9.148;2023-04-25T07:58:59;5.43;;;4.43;;
28311;SDS011;15572;48.810;9.148;2023-04-25T08:03:56;8.90;;;4.63;;
28311;SDS011;15572;48.810;9.148;2023-04-25T08:08:52;6.00;;;4.83;;
28311;SDS011;15572;48.810;9.148;2023-04-25T08:13:49;7.13;;;4.77;;
28311;SDS011;15572;48.810;9.148;2023-04-25T08:18:47;6.27;;;4.60;;
28311;SDS011;15572;48.810;9.148;2023-04-25T08:23:43;5.23;;;4.67;;
28311;SDS011;15572;48.810;9.148;2023-04-25T08:28:40;6.33;;;4.73;;
28311;SDS011;15572;48.810;9.148;2023-04-25T08:33:36;6.77;;;5.10;;
28311;SDS011;15572;48.810;9.148;2023-04-25T08:38:34;8.27;;;5.83;;
28311;SDS011;15572;48.810;9.148;2023-04-25T08:43:31;7.57;;;5.53;;
28311;SDS011;15572;48.810;9.148;2023-04-25T08:48:28;6.20;;;5.00;;
28311;SDS011;15572;48.810;9.148;2023-04-25T08:53:31;6.57;;;4.60;;
28311;SDS011;15572;48.810;9.148;2023-04-25T08:58:30;4.67;;;4.17;;
28311;SDS011;15572;48.810;9.148;2023-04-25T09:03:28;7.43;;;4.57;;
28311;SDS011;15572;48.810;9.148;2023-04-25T09:08:24;7.23;;;4.50;;
28311;SDS011;15572;48.810;9.148;2023-04-25T09:13:24;6.87;;;4.43;;
28311;SDS011;15572;48.810;9.148;2023-04-25T09:18:23;6.40;;;4.73;;
28311;SDS011;15572;48.810;9.148;2023-04-25T09:23:23;4.90;;;4.30;;
28311;SDS011;15572;48.810;9.148;2023-04-25T09:28:23;5.47;;;4.03;;
28311;SDS011;15572;48.810;9.148;2023-04-25T09:33:23;3.70;;;3.13;;
28311;SDS011;15572;48.810;9.148;2023-04-25T09:38:23;10.00;;;3.63;;
28311;SDS011;15572;48.810;9.148;2023-04-25T09:43:20;4.77;;;3.37;;
28311;SDS011;15572;48.810;9.148;2023-04-25T09:48:17;5.63;;;3.73;;
28311;SDS011;15572;48.810;9.148;2023-04-25T09:53:16;5.10;;;3.20;;
28311;SDS011;15572;48.810;9.148;2023-04-25T09:58:13;6.50;;;3.83;;
28311;SDS011;15572;48.810;9.148;2023-04-25T10:03:10;7.00;;;3.70;;
28311;SDS011;15572;48.810;9.148;2023-04-25T10:08:07;3.83;;;2.63;;
28311;SDS011;15572;48.810;9.148;2023-04-25T10:13:05;3.83;;;2.80;;
28311;SDS011;15572;48.810;9.148;2023-04-25T10:18:03;2.00;;;1.80;;
28311;SDS011;15572;48.810;9.148;2023-04-25T10:23:03;3.23;;;2.20;;
28311;SDS011;15572;48.810;9.148;2023-04-25T10:28:09;2.20;;;2.00;;
28311;SDS011;15572;48.810;9.148;2023-04-25T10:33:12;1.50;;;1.40;;
28311;SDS011;15572;48.810;9.148;2023-04-25T10:38:13;5.10;;;3.60;;
28311;SDS011;15572;48.810;9.148;2023-04-25T10:48:31;8.17;;;5.90;;
28311;SDS011;15572;48.810;9.148;2023-04-25T10:53:30;9.10;;;5.60;;
28311;SDS011;15572;48.810;9.148;2023-04-25T10:58:29;8.93;;;5.97;;
28311;SDS011;15572;48.810;9.148;2023-04-25T11:03:27;9.33;;;6.33;;
28311;SDS011;15572;48.810;9.148;2023-04-25T11:08:27;6.17;;;4.90;;
28311;SDS011;15572;48.810;9.148;2023-04-25T11:13:33;3.60;;;2.90;;
28311;SDS011;15572;48.810;9.148;2023-04-25T11:18:31;3.03;;;2.50;;
28311;SDS011;15572;48.810;9.148;2023-04-25T11:23:29;2.80;;;2.50;;
28311;SDS011;15572;48.810;9.148;2023-04-25T11:28:26;4.00;;;2.50;;
28311;SDS011;15572;48.810;9.148;2023-04-25T11:33:23;2.57;;;2.37;;
28311;SDS011;15572;48.810;9.148;2023-04-25T11:38:22;2.90;;;2.50;;
28311;SDS011;15572;48.810;9.148;2023-04-25T11:43:19;4.10;;;3.20;;
28311;SDS011;15572;48.810;9.148;2023-04-25T11:48:17;4.60;;;3.30;;
28311;SDS011;15572;48.810;9.148;2023-04-25T11:53:16;4.23;;;3.83;;
28311;SDS011;15572;48.810;9.148;2023-04-25T11:58:15;4.87;;;4.23;;
28311;SDS011;15572;48.810;9.148;2023-04-25T12:03:11;5.77;;;4.37;;
28311;SDS011;15572;48.810;9.148;2023-04-25T12:08:11;6.57;;;4.70;;
28311;SDS011;15572;48.810;9.148;2023-04-25T12:13:19;6.20;;;5.10;;
28311;SDS011;15572;48.810;9.148;2023-04-25T12:18:18;8.53;;;5.70;;
28311;SDS011;15572;48.810;9.148;2023-04-25T12:23:16;6.03;;;5.10;;
28311;SDS011;15572;48.810;9.148;2023-04-25T12:28:13;9.20;;;5.57;;
28311;SDS011;15572;48.810;9.148;2023-04-25T12:33:12;9.37;;;6.13;;
28311;SDS011;15572;48.810;9.148;2023-04-25T12:38:08;10.70;;;7.43;;
28311;SDS011;15572;48.810;9.148;2023-04-25T12:43:05;10.83;;;6.73;;
28311;SDS011;15572;48.810;9.148;2023-04-25T12:48:02;9.20;;;6.70;;
28311;SDS011;15572;48.810;9.148;2023-04-25T12:53:00;7.87;;;6.00;;
28311;SDS011;15572;48.810;9.148;2023-04-25T12:57:56;9.73;;;7.37;;
28311;SDS011;15572;48.810;9.148;2023-04-25T13:02:53;12.07;;;6.97;;
28311;SDS011;15572;48.810;9.148;2023-04-25T13:07:49;9.73;;;6.47;;
28311;SDS011;15572;48.810;9.148;2023-04-25T13:12:47;8.40;;;6.40;;
28311;SDS011;15572;48.810;9.148;2023-04-25T13:17:44;9.63;;;6.60;;
28311;SDS011;15572;48.810;9.148;2023-04-25T13:22:40;10.17;;;6.83;;
28311;SDS011;15572;48.810;9.148;2023-04-25T13:27:38;11.03;;;6.47;;
28311;SDS011;15572;48.810;9.148;2023-04-25T13:32:37;10.90;;;8.33;;
28311;SDS011;15572;48.810;9.148;2023-04-25T13:37:33;13.67;;;9.03;;
28311;SDS011;15572;48.810;9.148;2023-04-25T13:42:30;16.53;;;10.10;;
28311;SDS011;15572;48.810;9.148;2023-04-25T13:47:27;17.77;;;10.13;;
28311;SDS011;15572;48.810;9.148;2023-04-25T13:52:25;16.17;;;9.23;;
28311;SDS011;15572;48.810;9.148;2023-04-25T13:57:22;11.23;;;7.57;;
28311;SDS011;15572;48.810;9.148;2023-04-25T14:02:18;12.17;;;8.50;;
28311;SDS011;15572;48.810;9.148;2023-04-25T14:07:15;13.47;;;8.73;;
28311;SDS011;15572;48.810;9.148;2023-04-25T14:12:13;12.23;;;8.43;;
28311;SDS011;15572;48.810;9.148;2023-04-25T14:17:10;11.03;;;6.97;;
28311;SDS011;15572;48.810;9.148;2023-04-25T14:22:07;10.30;;;6.83;;
28311;SDS011;15572;48.810;9.148;2023-04-25T14:27:03;9.83;;;6.03;;
28311;SDS011;15572;48.810;9.148;2023-04-25T14:32:01;8.17;;;6.00;;
28311;SDS011;15572;48.810;9.148;2023-04-25T14:36:58;6.73;;;6.03;;
28311;SDS011;15572;48.810;9.148;2023-04-25T14:41:55;7.13;;;5.63;;
28311;SDS011;15572;48.810;9.148;2023-04-25T14:46:51;9.47;;;6.23;;
28311;SDS011;15572;48.810;9.148;2023-04-25T14:51:49;10.37;;;6.43;;
28311;SDS011;15572;48.810;9.148;2023-04-25T14:56:46;8.47;;;5.80;;
28311;SDS011;15572;48.810;9.148;2023-04-25T15:01:42;10.33;;;6.57;;
28311;SDS011;15572;48.810;9.148;2023-04-25T15:06:39;10.87;;;7.27;;
28311;SDS011;15572;48.810;9.148;2023-04-25T15:11:37;12.17;;;7.17;;
28311;SDS011;15572;48.810;9.148;2023-04-25T15:16:34;12.87;;;6.77;;
28311;SDS011;15572;48.810;9.148;2023-04-25T15:21:30;9.77;;;6.00;;
28311;SDS011;15572;48.810;9.148;2023-04-25T15:26:27;8.43;;;5.93;;
28311;SDS011;15572;48.810;9.148;2023-04-25T15:31:25;9.33;;;5.90;;
28311;SDS011;15572;48.810;9.148;2023-04-25T15:36:22;5.17;;;4.67;;
28311;SDS011;15572;48.810;9.148;2023-04-25T15:41:18;8.80;;;6.13;;
28311;SDS011;15572;48.810;9.148;2023-04-25T15:46:15;8.70;;;5.90;;
28311;SDS011;15572;48.810;9.148;2023-04-25T15:51:12;10.60;;;6.37;;
28311;SDS011;15572;48.810;9.148;2023-04-25T15:56:09;8.97;;;6.60;;
28311;SDS011;15572;48.810;9.148;2023-04-25T16:01:06;10.87;;;6.83;;
28311;SDS011;15572;48.810;9.148;2023-04-25T16:06:02;11.07;;;7.23;;
28311;SDS011;15572;48.810;9.148;2023-04-25T16:11:01;9.73;;;7.13;;
28311;SDS011;15572;48.810;9.148;2023-04-25T16:15:58;10.17;;;6.27;;
28311;SDS011;15572;48.810;9.148;2023-04-25T16:20:54;9.23;;;6.33;;
28311;SDS011;15572;48.810;9.148;2023-04-25T16:25:51;8.17;;;6.37;;
28311;SDS011;15572;48.810;9.148;2023-04-25T16:30:50;9.53;;;6.90;;
28311;SDS011;15572;48.810;9.148;2023-04-25T16:35:46;11.63;;;6.60;;
28311;SDS011;15572;48.810;9.148;2023-04-25T16:40:44;8.13;;;6.10;;
28311;SDS011;15572;48.810;9.148;2023-04-25T16:45:40;12.30;;;6.80;;
28311;SDS011;15572;48.810;9.148;2023-04-25T16:50:38;10.43;;;6.63;;
28311;SDS011;15572;48.810;9.148;2023-04-25T16:55:34;9.67;;;6.20;;
28311;SDS011;15572;48.810;9.148;2023-04-25T17:00:31;8.17;;;6.47;;
28311;SDS011;15572;48.810;9.148;2023-04-25T17:05:27;9.50;;;6.00;;
28311;SDS011;15572;48.810;9.148;2023-04-25T17:10:25;10.00;;;6.20;;
28311;SDS011;15572;48.810;9.148;2023-04-25T17:15:22;8.97;;;6.80;;
28311;SDS011;15572;48.810;9.148;2023-04-25T17:20:19;11.40;;;6.60;;
28311;SDS011;15572;48.810;9.148;2023-04-25T17:25:16;9.37;;;6.00;;
28311;SDS011;15572;48.810;9.148;2023-04-25T17:30:14;11.03;;;5.90;;
28311;SDS011;15572;48.810;9.148;2023-04-25T17:35:11;9.80;;;6.47;;
28311;SDS011;15572;48.810;9.148;2023-04-25T17:40:08;10.43;;;6.87;;
28311;SDS011;15572;48.810;9.148;2023-04-25T17:45:06;10.73;;;6.60;;
28311;SDS011;15572;48.810;9.148;2023-04-25T17:50:05;7.83;;;5.23;;
28311;SDS011;15572;48.810;9.148;2023-04-25T17:55:03;7.73;;;5.73;;
28311;SDS011;15572;48.810;9.148;2023-04-25T18:00:00;10.00;;;6.87;;
28311;SDS011;15572;48.810;9.148;2023-04-25T18:04:57;11.90;;;8.00;;
28311;SDS011;15572;48.810;9.148;2023-04-25T18:09:55;11.73;;;8.00;;
28311;SDS011;15572;48.810;9.148;2023-04-25T18:14:51;12.47;;;8.03;;
28311;SDS011;15572;48.810;9.148;2023-04-25T18:19:48;10.30;;;7.13;;
28311;SDS011;15572;48.810;9.148;2023-04-25T18:24:45;12.37;;;7.83;;
28311;SDS011;15572;48.810;9.148;2023-04-25T18:29:43;9.33;;;6.57;;
28311;SDS011;15572;48.810;9.148;2023-04-25T18:34:39;11.70;;;6.53;;
28311;SDS011;15572;48.810;9.148;2023-04-25T18:39:37;11.37;;;6.67;;
28311;SDS011;15572;48.810;9.148;2023-04-25T18:44:34;10.93;;;6.37;;
28311;SDS011;15572;48.810;9.148;2023-04-25T18:49:35;8.50;;;5.90;;
28311;SDS011;15572;48.810;9.148;2023-04-25T18:54:32;9.60;;;5.90;;
28311;SDS011;15572;48.810;9.148;2023-04-25T18:59:29;9.17;;;6.20;;
28311;SDS011;15572;48.810;9.148;2023-04-25T19:04:25;8.83;;;6.33;;
28311;SDS011;15572;48.810;9.148;2023-04-25T19:09:23;14.83;;;7.60;;
28311;SDS011;15572;48.810;9.148;2023-04-25T19:14:20;13.13;;;7.77;;
28311;SDS011;15572;48.810;9.148;2023-04-25T19:19:16;9.60;;;7.20;;
28311;SDS011;15572;48.810;9.148;2023-04-25T19:24:13;12.63;;;7.37;;
28311;SDS011;15572;48.810;9.148;2023-04-25T19:29:11;14.73;;;8.73;;
28311;SDS011;15572;48.810;9.148;2023-04-25T19:34:11;11.33;;;7.93;;
28311;SDS011;15572;48.810;9.148;2023-04-25T19:39:08;11.97;;;7.93;;
28311;SDS011;15572;48.810;9.148;2023-04-25T19:44:05;13.07;;;8.10;;
28311;SDS011;15572;48.810;9.148;2023-04-25T19:49:04;13.60;;;8.30;;
28311;SDS011;15572;48.810;9.148;2023-04-25T19:54:01;14.70;;;8.27;;
28311;SDS011;15572;48.810;9.148;2023-04-25T19:58:58;13.47;;;8.20;;
28311;SDS011;15572;48.810;9.148;2023-04-25T20:03:54;14.43;;;8.33;;
28311;SDS011;15572;48.810;9.148;2023-04-25T20:08:53;14.63;;;9.07;;
28311;SDS011;15572;48.810;9.148;2023-04-25T20:13:50;16.23;;;9.50;;
28311;SDS011;15572;48.810;9.148;2023-04-25T20:18:46;12.67;;;9.60;;
28311;SDS011;15572;48.810;9.148;2023-04-25T20:23:44;12.90;;;8.87;;
28311;SDS011;15572;48.810;9.148;2023-04-25T20:28:42;13.57;;;9.30;;
28311;SDS011;15572;48.810;9.148;2023-04-25T20:33:39;12.33;;;8.83;;
28311;SDS011;15572;48.810;9.148;2023-04-25T20:38:37;15.53;;;9.57;;
28311;SDS011;15572;48.810;9.148;2023-04-25T20:43:34;12.03;;;8.50;;
28311;SDS011;15572;48.810;9.148;2023-04-25T20:48:33;15.20;;;8.40;;
28311;SDS011;15572;48.810;9.148;2023-04-25T20:53:29;13.57;;;8.27;;
28311;SDS011;15572;48.810;9.148;2023-04-25T20:58:26;11.70;;;7.33;;
28311;SDS011;15572;48.810;9.148;2023-04-25T21:03:23;11.03;;;7.13;;
28311;SDS011;15572;48.810;9.148;2023-04-25T21:08:21;10.40;;;7.07;;
28311;SDS011;15572;48.810;9.148;2023-04-25T21:13:18;14.27;;;7.33;;
28311;SDS011;15572;48.810;9.148;2023-04-25T21:18:14;10.47;;;7.23;;
28311;SDS011;15572;48.810;9.148;2023-04-25T21:23:11;10.53;;;7.13;;
28311;SDS011;15572;48.810;9.148;2023-04-25T21:28:09;11.20;;;7.40;;
28311;SDS011;15572;48.810;9.148;2023-04-25T21:33:06;14.10;;;7.73;;
28311;SDS011;15572;48.810;9.148;2023-04-25T21:38:02;12.40;;;6.80;;
28311;SDS011;15572;48.810;9.148;2023-04-25T21:42:59;10.77;;;6.70;;
28311;SDS011;15572;48.810;9.148;2023-04-25T21:47:57;9.50;;;6.03;;
28311;SDS011;15572;48.810;9.148;2023-04-25T21:52:54;13.13;;;6.57;;
28311;SDS011;15572;48.810;9.148;2023-04-25T22:02:51;11.80;;;7.10;;
28311;SDS011;15572;48.810;9.148;2023-04-25T22:07:51;12.77;;;7.77;;
28311;SDS011;15572;48.810;9.148;2023-04-25T22:12:48;11.83;;;8.37;;
28311;SDS011;15572;48.810;9.148;2023-04-25T22:17:45;16.27;;;8.10;;
28311;SDS011;15572;48.810;9.148;2023-04-25T22:22:42;13.83;;;7.70;;
28311;SDS011;15572;48.810;9.148;2023-04-25T22:27:40;12.97;;;8.27;;
28311;SDS011;15572;48.810;9.148;2023-04-25T22:32:37;16.20;;;7.87;;
28311;SDS011;15572;48.810;9.148;2023-04-25T22:37:34;14.30;;;7.73;;
28311;SDS011;15572;48.810;9.148;2023-04-25T22:42:35;12.50;;;8.23;;
28311;SDS011;15572;48.810;9.148;2023-04-25T22:47:34;13.47;;;8.30;;
28311;SDS011;15572;48.810;9.148;2023-04-25T22:52:31;12.47;;;8.33;;
28311;SDS011;15572;48.810;9.148;2023-04-25T22:57:28;12.73;;;8.03;;
28311;SDS011;15572;48.810;9.148;2023-04-25T23:02:25;14.70;;;8.40;;
28311;SDS011;15572;48.810;9.148;2023-04-25T23:07:23;13.57;;;8.70;;
28311;SDS011;15572;48.810;9.148;2023-04-25T23:12:20;13.27;;;8.07;;
28311;SDS011;15572;48.810;9.148;2023-04-25T23:17:16;12.43;;;7.97;;
28311;SDS011;15572;48.810;9.148;2023-04-25T23:22:14;12.73;;;8.30;;
28311;SDS011;15572;48.810;9.148;2023-04-25T23:27:12;12.13;;;8.63;;
28311;SDS011;15572;48.810;9.148;2023-04-25T23:32:08;12.93;;;8.07;;
28311;SDS011;15572;48.810;9.148;2023-04-25T23:37:06;13.37;;;7.80;;
28311;SDS011;15572;48.810;9.148;2023-04-25T23:42:03;11.17;;;7.27;;
28311;SDS011;15572;48.810;9.148;2023-04-25T23:47:01;10.20;;;7.17;;
28311;SDS011;15572;48.810;9.148;2023-04-25T23:51:57;14.00;;;7.13;;
28311;SDS011;15572;48.810;9.148;2023-04-25T23:56:54;11.23;;;7.43;;
